Time;durP1;ratioP1;P1;durP2;ratioP2;P2;SDS_P1;SDS_P2;PMS_P1;PMS_P2;Temp;Humidity;BMP_temperature;BMP_pressure;BME280_temperature;BME280_humidity;BME280_pressure;Samples;Min_cycle;Max_cycle;Signal;HPM_P1;HPM_P2
2022/06/15 00:01:25;;;;;;;;;10.33;10.00;;;;;20.12;51.81;101145.00;5078507;28;52115;-73
2022/06/15 00:03:51;;;;;;;;;11.67;10.33;;;;;20.04;51.88;101146.13;5079146;27;45569;-73
2022/06/15 00:06:22;;;;;;;;;10.00;9.00;;;;;19.96;51.91;101128.34;5087188;27;45393;-73
2022/06/15 00:08:51;;;;;;;;;9.00;9.00;;;;;19.95;51.82;101132.09;5078379;27;46375;-73
2022/06/15 00:11:19;;;;;;;;;10.67;9.67;;;;;19.92;51.77;101132.56;5078874;27;45279;-73
2022/06/15 00:13:45;;;;;;;;;11.00;11.00;;;;;19.84;51.79;101125.59;5078016;28;45342;-73
2022/06/15 00:16:12;;;;;;;;;10.00;10.00;;;;;19.91;52.02;101122.84;5077157;28;46195;-73
2022/06/15 00:18:37;;;;;;;;;8.67;8.67;;;;;19.88;52.16;101125.97;5094340;27;45957;-73
2022/06/15 00:21:05;;;;;;;;;10.33;10.33;;;;;19.83;51.70;101125.81;5078344;27;45407;-74
2022/06/15 00:23:32;;;;;;;;;9.00;9.00;;;;;19.86;52.39;101125.38;5078587;27;45322;-73
2022/06/15 00:25:58;;;;;;;;;10.00;10.00;;;;;19.83;52.46;101128.53;5078190;27;45541;-73
2022/06/15 00:28:24;;;;;;;;;9.67;9.67;;;;;19.74;52.35;101111.84;5076678;28;47216;-73
2022/06/15 00:30:50;;;;;;;;;10.00;9.33;;;;;19.71;52.56;101115.81;5078277;28;45287;-73
2022/06/15 00:33:19;;;;;;;;;12.00;11.00;;;;;19.67;52.28;101106.53;5078596;27;45266;-73
2022/06/15 00:35:51;;;;;;;;;9.00;9.00;;;;;19.69;52.43;101109.81;5078078;27;45618;-73
2022/06/15 00:38:16;;;;;;;;;11.00;10.33;;;;;19.66;52.27;101113.78;5077526;27;45350;-75
2022/06/15 00:40:42;;;;;;;;;9.00;9.00;;;;;19.62;52.52;101106.38;5078237;27;45346;-74
2022/06/15 00:43:09;;;;;;;;;9.33;9.33;;;;;19.66;52.30;101121.88;5078596;27;45321;-74
2022/06/15 00:45:34;;;;;;;;;10.67;10.67;;;;;19.66;52.47;101110.25;5072999;28;46021;-73
2022/06/15 00:47:59;;;;;;;;;11.00;10.00;;;;;19.61;52.40;101110.97;5067927;28;45397;-74
2022/06/15 00:50:25;;;;;;;;;10.00;10.00;;;;;19.59;52.81;101120.31;5093973;27;45967;-73
2022/06/15 00:53:08;;;;;;;;;9.00;9.00;;;;;19.54;52.33;101121.81;5078336;28;45443;-73
2022/06/15 00:55:35;;;;;;;;;10.67;10.33;;;;;19.53;53.16;101122.88;5076028;28;46099;-73
2022/06/15 00:58:03;;;;;;;;;11.33;11.33;;;;;19.48;53.53;101130.00;5081068;27;45331;-73
2022/06/15 01:00:29;;;;;;;;;10.33;10.00;;;;;19.42;53.32;101131.69;5081191;27;45226;-73
2022/06/15 01:02:55;;;;;;;;;9.00;9.00;;;;;19.39;53.38;101121.34;5081363;27;45248;-73
2022/06/15 01:05:44;;;;;;;;;10.33;10.33;;;;;19.40;52.94;101131.09;5097080;27;45350;-73
2022/06/15 01:08:34;;;;;;;;;11.00;11.00;;;;;19.40;52.98;101131.09;5081203;27;45429;-73
2022/06/15 01:11:03;;;;;;;;;9.00;9.00;;;;;19.39;52.96;101122.19;5079592;27;45999;-74
2022/06/15 01:13:37;;;;;;;;;10.67;9.00;;;;;19.30;53.02;101107.34;5080704;27;45405;-73
2022/06/15 01:16:30;;;;;;;;;11.00;10.67;;;;;19.36;53.14;101124.53;5080907;27;45325;-73
2022/06/15 01:19:19;;;;;;;;;10.33;10.00;;;;;19.32;53.12;101117.91;5076272;28;47722;-72
2022/06/15 01:21:44;;;;;;;;;10.33;10.33;;;;;19.32;53.36;101124.13;5068651;28;45396;-73
2022/06/15 01:24:28;;;;;;;;;10.33;10.33;;;;;19.30;53.30;101123.53;5080692;28;45519;-73
2022/06/15 01:27:14;;;;;;;;;11.33;11.33;;;;;19.27;53.58;101126.66;5071350;28;46250;-73
2022/06/15 01:29:42;;;;;;;;;11.00;11.00;;;;;19.25;53.74;101129.59;5077605;28;45304;-73
2022/06/15 01:32:17;;;;;;;;;10.00;10.00;;;;;19.20;53.71;101129.44;5080649;28;45307;-74
2022/06/15 01:35:01;;;;;;;;;8.67;7.33;;;;;19.11;54.02;101114.59;5080820;27;45196;-73
2022/06/15 01:37:35;;;;;;;;;10.00;10.00;;;;;19.17;53.74;101132.56;5096541;27;45503;-74
2022/06/15 01:40:12;;;;;;;;;9.33;8.67;;;;;19.17;53.90;101129.88;5080653;27;45401;-73
2022/06/15 01:42:44;;;;;;;;;11.00;11.00;;;;;19.12;53.80;101125.16;5075443;28;46127;-73
2022/06/15 01:45:15;;;;;;;;;11.33;11.33;;;;;19.12;54.19;101129.72;5078540;28;45423;-73
2022/06/15 01:47:43;;;;;;;;;8.33;7.67;;;;;19.08;54.66;101126.66;5080529;27;45383;-73
2022/06/15 01:50:25;;;;;;;;;9.00;9.00;;;;;19.02;54.40;101114.03;5081687;27;46311;-74
2022/06/15 01:53:00;;;;;;;;;9.33;9.00;;;;;19.00;54.71;101116.13;5104695;27;45239;-73
2022/06/15 01:55:32;;;;;;;;;10.67;10.67;;;;;18.94;55.39;101115.16;5080440;27;45203;-73
2022/06/15 01:58:06;;;;;;;;;12.67;11.67;;;;;18.91;54.63;101102.13;5075672;28;46396;-73
2022/06/15 02:00:31;;;;;;;;;11.33;11.33;;;;;18.94;55.45;101112.44;5078994;28;47306;-73
2022/06/15 02:03:24;;;;;;;;;10.33;9.33;;;;;18.84;55.20;101101.38;5080415;27;45260;-73
2022/06/15 02:05:58;;;;;;;;;12.00;12.00;;;;;18.86;55.46;101101.97;5107042;27;45377;-73
2022/06/15 02:08:35;;;;;;;;;12.00;11.00;;;;;18.84;55.75;101102.19;5079009;27;46708;-73
2022/06/15 02:11:40;;;;;;;;;13.00;11.67;;;;;18.81;55.52;101097.25;5080330;27;46009;-73
2022/06/15 02:14:22;;;;;;;;;10.33;10.00;;;;;18.75;55.57;101090.88;5057177;28;45532;-74
2022/06/15 02:16:59;;;;;;;;;12.00;12.00;;;;;18.76;55.80;101095.22;5057872;28;45309;-73
2022/06/15 02:19:33;;;;;;;;;12.00;12.00;;;;;18.70;55.44;101093.41;5071983;27;45435;-73
2022/06/15 02:22:07;;;;;;;;;8.00;8.00;;;;;18.74;55.48;101088.41;5080323;28;45342;-73
2022/06/15 02:24:34;;;;;;;;;12.00;10.33;;;;;18.73;55.80;101089.44;5078689;28;46335;-73
2022/06/15 02:27:02;;;;;;;;;10.33;10.00;;;;;18.71;55.98;101086.16;5080104;27;45347;-73
2022/06/15 02:29:34;;;;;;;;;9.33;9.00;;;;;18.68;55.93;101077.47;5079669;27;45322;-73
2022/06/15 02:32:00;;;;;;;;;9.67;9.67;;;;;18.60;55.86;101077.75;5079917;27;46038;-73
2022/06/15 02:34:26;;;;;;;;;8.00;8.00;;;;;18.62;56.00;101082.94;5077826;28;46054;-73
2022/06/15 02:36:53;;;;;;;;;10.67;10.67;;;;;18.61;56.53;101087.47;5080082;27;45286;-73
2022/06/15 02:39:19;;;;;;;;;11.67;11.67;;;;;18.60;56.54;101085.84;5079680;27;45273;-73
2022/06/15 02:41:44;;;;;;;;;12.00;12.00;;;;;18.57;56.66;101078.19;5079300;27;46333;-73
2022/06/15 02:44:14;;;;;;;;;12.00;12.00;;;;;18.54;57.04;101076.78;5079307;27;45452;-74
2022/06/15 02:46:43;;;;;;;;;10.00;10.00;;;;;18.50;57.19;101083.63;5079907;27;45865;-73
2022/06/15 02:49:09;;;;;;;;;12.33;11.33;;;;;18.44;56.80;101076.44;5079721;27;45293;-73
2022/06/15 02:51:44;;;;;;;;;7.67;7.67;;;;;18.40;56.96;101069.84;5079272;28;45311;-73
2022/06/15 02:54:27;;;;;;;;;10.00;10.00;;;;;18.44;57.41;101076.44;5079357;27;45291;-73
2022/06/15 02:56:52;;;;;;;;;9.00;9.00;;;;;18.37;57.58;101070.25;5079351;28;45335;-74
2022/06/15 02:59:18;;;;;;;;;9.00;9.00;;;;;18.39;57.70;101068.19;5079427;27;45439;-73
2022/06/15 03:01:44;;;;;;;;;10.00;10.00;;;;;18.42;57.85;101071.28;5079347;27;45471;-73
2022/06/15 03:04:09;;;;;;;;;9.00;9.00;;;;;18.42;57.52;101071.28;5082619;27;45484;-73
2022/06/15 03:06:35;;;;;;;;;9.00;9.00;;;;;18.42;57.99;101076.66;5086698;27;45332;-73
2022/06/15 03:09:00;;;;;;;;;8.00;8.00;;;;;18.33;57.76;101063.69;5079058;27;45433;-73
2022/06/15 03:11:26;;;;;;;;;11.00;10.00;;;;;18.35;58.44;101073.19;5094997;27;48373;-73
2022/06/15 03:13:53;;;;;;;;;10.67;10.67;;;;;18.32;58.60;101080.88;5078624;27;45484;-73
2022/06/15 03:16:18;;;;;;;;;11.33;10.00;;;;;18.30;58.45;101086.47;5079149;27;45511;-73
2022/06/15 03:18:44;;;;;;;;;12.00;12.00;;;;;18.26;57.77;101075.31;5074763;28;46158;-73
2022/06/15 03:21:10;;;;;;;;;11.00;11.00;;;;;18.26;58.18;101064.53;5079117;27;46259;-73
2022/06/15 03:23:35;;;;;;;;;10.00;9.33;;;;;18.28;58.39;101084.00;5078945;27;45434;-73
2022/06/15 03:26:03;;;;;;;;;13.33;10.00;;;;;18.27;58.16;101081.53;5094582;27;45440;-73
2022/06/15 03:28:29;;;;;;;;;8.67;8.67;;;;;18.21;58.70;101071.63;5078699;27;45480;-73
2022/06/15 03:30:54;;;;;;;;;10.33;10.33;;;;;18.13;58.90;101075.41;5078688;27;45356;-73
2022/06/15 03:33:20;;;;;;;;;11.67;10.00;;;;;18.04;58.94;101059.50;5078726;27;45346;-73
2022/06/15 03:35:47;;;;;;;;;10.67;10.00;;;;;18.14;59.18;101085.94;5078798;27;45369;-73
2022/06/15 03:38:12;;;;;;;;;9.00;9.00;;;;;18.11;59.03;101082.88;5078810;27;45482;-74
2022/06/15 03:40:41;;;;;;;;;9.33;9.33;;;;;18.14;59.43;101099.38;5078560;27;45447;-73
2022/06/15 03:43:06;;;;;;;;;11.00;11.00;;;;;18.09;58.85;101095.69;5078620;27;45625;-73
2022/06/15 03:45:32;;;;;;;;;8.00;8.00;;;;;18.03;59.07;101090.13;5078390;27;45337;-73
2022/06/15 03:47:58;;;;;;;;;11.00;11.00;;;;;18.02;59.48;101093.84;5078785;27;45372;-73
2022/06/15 03:50:24;;;;;;;;;12.33;10.67;;;;;18.02;59.70;101098.41;5078534;27;46005;-73
2022/06/15 03:52:50;;;;;;;;;12.00;11.00;;;;;18.04;59.80;101104.38;5078939;27;45307;-74
2022/06/15 03:55:17;;;;;;;;;10.67;10.33;;;;;18.01;59.56;101100.28;5078455;27;45373;-73
2022/06/15 03:57:43;;;;;;;;;9.67;9.67;;;;;17.91;59.97;101089.16;5094092;27;46428;-73
2022/06/15 04:00:13;;;;;;;;;7.00;7.00;;;;;18.01;59.99;101102.97;5078214;27;45409;-73
2022/06/15 04:02:38;;;;;;;;;12.00;12.00;;;;;17.89;59.88;101083.16;5076237;27;45370;-73
2022/06/15 04:05:04;;;;;;;;;11.00;9.33;;;;;17.95;60.42;101094.91;5066777;28;45316;-74
2022/06/15 04:10:14;;;;;;;;;11.00;11.00;;;;;17.97;60.74;101095.53;5066230;28;45289;-73
2022/06/15 04:12:39;;;;;;;;;13.33;11.00;;;;;17.99;60.16;101104.22;5078491;27;45479;-72
2022/06/15 04:15:06;;;;;;;;;12.00;10.00;;;;;18.02;60.74;101101.09;5078597;28;45338;-74
2022/06/15 04:17:31;;;;;;;;;14.00;12.00;;;;;17.89;60.41;101083.16;5090576;27;46574;-73
2022/06/15 04:22:40;;;;;;;;;13.00;13.00;;;;;17.96;60.59;101086.63;5078363;28;45415;-74
2022/06/15 04:25:06;;;;;;;;;10.00;10.00;;;;;18.00;61.20;101097.78;5077525;27;45492;-73
2022/06/15 04:27:32;;;;;;;;;9.33;9.00;;;;;18.00;61.19;101090.56;5078640;27;45478;-73
2022/06/15 04:29:59;;;;;;;;;11.00;11.00;;;;;17.96;61.36;101083.13;5085008;27;48124;-73
2022/06/15 04:32:24;;;;;;;;;12.67;11.00;;;;;17.98;60.49;101084.56;5081378;27;45459;-73
2022/06/15 04:34:50;;;;;;;;;8.33;8.33;;;;;18.01;61.13;101091.38;5081406;27;45342;-74
2022/06/15 04:37:15;;;;;;;;;10.00;10.00;;;;;18.05;60.79;101089.91;5082001;27;45461;-73
2022/06/15 04:39:40;;;;;;;;;11.33;11.33;;;;;18.10;61.10;101094.63;5079478;27;46655;-73
2022/06/15 04:42:06;;;;;;;;;47.00;36.00;;;;;18.04;60.94;101078.31;5074526;27;45401;-73
2022/06/15 04:44:31;;;;;;;;;30.67;27.33;;;;;18.10;60.65;101086.56;5081056;27;45335;-73
2022/06/15 04:46:58;;;;;;;;;47.50;39.50;;;;;18.16;60.62;101093.78;5080826;27;45685;-74
2022/06/15 04:49:23;;;;;;;;;23.33;21.00;;;;;18.20;60.68;101094.19;5079831;28;47626;-73
2022/06/15 04:51:48;;;;;;;;;12.00;11.67;;;;;18.23;60.68;101097.25;5097383;27;45265;-73
2022/06/15 04:54:14;;;;;;;;;26.67;24.33;;;;;18.19;61.03;101089.88;5080875;27;45621;-73
2022/06/15 04:56:39;;;;;;;;;55.75;45.75;;;;;18.20;60.75;101103.09;5078562;28;56216;-73
2022/06/15 04:59:05;;;;;;;;;59.75;46.00;;;;;18.14;61.69;101098.59;5081784;27;45339;-77
2022/06/15 05:01:30;;;;;;;;;105.75;89.50;;;;;18.18;61.34;101105.16;5080345;28;46090;-73
2022/06/15 05:03:56;;;;;;;;;53.75;43.25;;;;;18.22;61.63;101106.38;5082621;27;45397;-73
2022/06/15 05:06:21;;;;;;;;;54.25;41.75;;;;;18.26;61.13;101109.47;5081233;27;45648;-73
2022/06/15 05:08:46;;;;;;;;;89.00;74.50;;;;;18.24;62.08;101107.00;5079749;27;48085;-73
2022/06/15 05:11:12;;;;;;;;;71.25;62.75;;;;;18.20;61.25;101100.41;5081989;27;46723;-74
2022/06/15 05:13:37;;;;;;;;;106.75;94.25;;;;;18.30;61.80;101110.69;5081850;27;45328;-73
2022/06/15 05:16:02;;;;;;;;;53.50;43.25;;;;;18.27;61.85;101108.44;5096206;27;47727;-74
2022/06/15 05:18:28;;;;;;;;;19.33;17.67;;;;;18.26;61.47;101104.91;5099350;27;48198;-75
2022/06/15 05:20:54;;;;;;;;;40.00;35.33;;;;;18.24;61.31;101101.63;5089236;27;45307;-74
2022/06/15 05:23:19;;;;;;;;;37.00;32.67;;;;;18.25;61.90;101105.13;5101179;27;45383;-75
2022/06/15 05:25:44;;;;;;;;;42.25;35.50;;;;;18.36;61.54;101123.28;5100044;27;45930;-75
2022/06/15 05:28:12;;;;;;;;;74.75;65.50;;;;;18.36;61.52;101114.38;5083698;27;45404;-74
2022/06/15 05:30:38;;;;;;;;;138.33;124.67;;;;;18.36;61.44;101112.50;5084220;28;45388;-75
2022/06/15 05:33:04;;;;;;;;;59.00;48.25;;;;;18.44;61.15;101126.75;5083616;27;45278;-74
2022/06/15 05:35:30;;;;;;;;;104.25;94.00;;;;;18.43;61.53;101123.22;5081777;27;45387;-73
2022/06/15 05:37:56;;;;;;;;;39.00;32.50;;;;;18.40;61.49;101113.72;5080700;27;45473;-72
2022/06/15 05:40:22;;;;;;;;;59.00;45.50;;;;;18.45;61.86;101110.38;5096278;27;46809;-71
2022/06/15 05:42:47;;;;;;;;;18.33;16.00;;;;;18.48;61.78;101112.63;5080434;27;45267;-72
2022/06/15 05:45:13;;;;;;;;;23.33;22.33;;;;;18.57;61.80;101118.56;5079929;27;45374;-72
2022/06/15 05:47:38;;;;;;;;;43.75;36.50;;;;;18.60;62.11;101111.91;5080529;27;45433;-71
2022/06/15 05:50:06;;;;;;;;;41.25;35.75;;;;;18.62;61.68;101099.88;5080539;27;45401;-72
2022/06/15 05:52:31;;;;;;;;;15.33;14.67;;;;;18.70;61.20;101109.56;5080694;27;45413;-74
2022/06/15 05:54:58;;;;;;;;;19.00;18.00;;;;;18.66;61.79;101101.13;5080039;27;45292;-74
2022/06/15 05:57:25;;;;;;;;;30.33;29.00;;;;;18.82;62.13;101111.53;5080224;27;45970;-73
2022/06/15 05:59:51;;;;;;;;;31.00;28.00;;;;;18.88;61.65;101113.34;5080399;27;45274;-73
2022/06/15 06:02:19;;;;;;;;;59.50;46.00;;;;;18.93;61.58;101117.03;5080163;28;45425;-73
2022/06/15 06:04:44;;;;;;;;;67.75;52.50;;;;;18.93;61.94;101106.25;5088207;27;45486;-73
2022/06/15 06:07:11;;;;;;;;;107.25;94.75;;;;;19.00;61.31;101114.25;5082145;27;45381;-73
2022/06/15 06:09:36;;;;;;;;;113.00;101.50;;;;;19.00;61.70;101113.44;5080296;28;45438;-74
2022/06/15 06:12:03;;;;;;;;;54.25;44.00;;;;;19.08;61.27;101115.06;5079988;27;45500;-74
2022/06/15 06:14:28;;;;;;;;;45.00;38.75;;;;;19.22;61.22;101118.44;5079747;28;45361;-74
2022/06/15 06:16:53;;;;;;;;;14.33;14.33;;;;;19.29;60.70;101119.19;5079777;28;48870;-73
2022/06/15 06:19:19;;;;;;;;;12.33;12.00;;;;;19.37;61.00;101115.38;5079523;27;45354;-74
2022/06/15 06:21:44;;;;;;;;;13.67;11.33;;;;;19.47;60.52;101126.47;5077529;28;45507;-73
2022/06/15 06:24:11;;;;;;;;;10.00;10.00;;;;;19.46;60.36;101114.03;5078464;27;45461;-74
2022/06/15 06:26:37;;;;;;;;;26.00;26.00;;;;;19.59;59.99;101123.00;5079921;27;46356;-73
2022/06/15 06:29:04;;;;;;;;;25.33;23.00;;;;;19.61;59.61;101120.91;5079662;27;45365;-73
2022/06/15 06:31:30;;;;;;;;;23.67;21.33;;;;;19.63;59.23;101125.03;5079776;27;45488;-73
2022/06/15 06:33:55;;;;;;;;;52.50;42.25;;;;;19.67;59.62;101123.53;5079309;27;45447;-74
2022/06/15 06:36:21;;;;;;;;;63.00;49.50;;;;;19.71;58.92;101128.47;5079383;28;45352;-74
2022/06/15 06:38:46;;;;;;;;;67.75;50.50;;;;;19.72;59.45;101120.16;5079649;27;45302;-74
2022/06/15 06:41:20;;;;;;;;;67.75;57.75;;;;;19.81;59.62;101124.19;5079770;27;45663;-74
2022/06/15 06:43:45;;;;;;;;;46.75;37.00;;;;;19.85;59.75;101116.47;5077777;28;46316;-73
2022/06/15 06:46:11;;;;;;;;;119.25;102.00;;;;;19.85;59.44;101100.28;5079248;27;48058;-74
2022/06/15 06:48:36;;;;;;;;;76.75;68.75;;;;;19.99;58.97;101111.72;5074645;28;45336;-73
2022/06/15 06:51:02;;;;;;;;;57.50;44.50;;;;;20.03;58.69;101112.13;5070413;28;45420;-74
2022/06/15 06:53:27;;;;;;;;;60.75;47.75;;;;;20.12;58.73;101116.16;5078464;27;45360;-74
2022/06/15 06:55:52;;;;;;;;;60.50;46.75;;;;;20.12;58.73;101104.53;5079437;27;46116;-75
2022/06/15 06:58:18;;;;;;;;;32.67;29.67;;;;;20.16;58.89;101111.09;5079265;27;45303;-74
2022/06/15 07:00:43;;;;;;;;;32.00;28.67;;;;;20.15;58.81;101099.50;5079850;27;45532;-73
2022/06/15 07:03:09;;;;;;;;;36.67;32.33;;;;;20.29;58.94;101121.69;5095071;27;46985;-73
2022/06/15 07:05:36;;;;;;;;;12.00;12.00;;;;;20.38;58.37;101124.88;5090458;27;45475;-74
2022/06/15 07:08:02;;;;;;;;;28.00;26.00;;;;;20.43;58.81;101132.28;5077766;28;45998;-74
2022/06/15 07:10:28;;;;;;;;;51.50;40.50;;;;;20.46;57.98;101114.81;5079023;27;45310;-74
2022/06/15 07:12:55;;;;;;;;;10.00;9.00;;;;;20.48;57.93;101121.63;5079147;27;45449;-74
2022/06/15 07:15:21;;;;;;;;;15.00;12.67;;;;;20.50;58.36;101124.09;5078666;27;45410;-74
2022/06/15 07:17:46;;;;;;;;;48.67;38.67;;;;;20.50;58.31;101114.13;5079028;27;45490;-74
2022/06/15 07:20:12;;;;;;;;;34.00;31.33;;;;;20.50;59.04;101108.72;5074592;28;45433;-76
2022/06/15 07:22:38;;;;;;;;;60.00;47.00;;;;;20.63;58.91;101121.19;5076113;28;47168;-75
2022/06/15 07:25:06;;;;;;;;;11.67;8.67;;;;;20.69;58.68;101119.44;5078444;27;46211;-75
2022/06/15 07:27:37;;;;;;;;;11.67;11.67;;;;;20.78;58.81;101125.31;5078402;27;45418;-75
2022/06/15 07:30:09;;;;;;;;;7.00;7.00;;;;;20.85;58.20;101119.78;5092580;27;45648;-75
2022/06/15 07:32:37;;;;;;;;;10.67;10.67;;;;;20.92;57.89;101124.03;5076894;27;45779;-77
2022/06/15 07:35:03;;;;;;;;;25.67;23.67;;;;;20.99;57.65;101113.13;5077844;27;46021;-76
2022/06/15 07:37:28;;;;;;;;;57.00;43.75;;;;;21.12;56.83;101120.16;5078006;28;45385;-75
2022/06/15 07:39:53;;;;;;;;;36.00;29.33;;;;;21.21;56.34;101120.63;5093146;27;45395;-76
2022/06/15 07:42:20;;;;;;;;;31.33;29.00;;;;;21.25;56.79;101110.97;5078274;27;45269;-75
2022/06/15 07:44:45;;;;;;;;;14.33;13.33;;;;;21.39;57.16;101110.72;5077946;27;46068;-75
2022/06/15 07:49:54;;;;;;;;;13.00;13.00;;;;;21.53;56.90;101112.13;5076665;28;45371;-77
2022/06/15 07:52:22;;;;;;;;;20.33;19.67;;;;;21.72;56.62;101121.91;5088596;27;45361;-76
2022/06/15 07:54:48;;;;;;;;;10.33;10.33;;;;;21.76;55.04;101110.41;5076376;27;46202;-75
2022/06/15 07:57:14;;;;;;;;;49.75;40.00;;;;;21.91;55.84;101119.91;5093353;27;45444;-75
2022/06/15 07:59:40;;;;;;;;;41.00;34.33;;;;;22.04;56.09;101121.50;5078034;27;45267;-75
2022/06/15 08:02:06;;;;;;;;;15.00;13.00;;;;;22.18;55.46;101124.72;5077699;27;45396;-76
2022/06/15 08:04:31;;;;;;;;;12.33;10.33;;;;;22.28;55.00;101122.19;5084643;27;46432;-75
2022/06/15 08:06:57;;;;;;;;;9.00;8.33;;;;;22.32;54.72;101120.63;5085483;27;45312;-76
2022/06/15 08:09:22;;;;;;;;;11.67;10.33;;;;;22.41;54.43;101112.09;5082079;27;45232;-77
2022/06/15 08:14:34;;;;;;;;;19.00;19.00;;;;;22.68;53.20;101128.56;5081454;28;45378;-75
2022/06/15 08:17:01;;;;;;;;;9.00;9.00;;;;;22.73;52.82;101116.16;5081738;27;45493;-75
2022/06/15 08:19:30;;;;;;;;;12.33;9.33;;;;;22.90;53.28;101122.38;5082320;27;45213;-75
2022/06/15 08:21:56;;;;;;;;;9.00;9.00;;;;;22.97;52.12;101122.22;5081895;27;45340;-76
2022/06/15 08:24:21;;;;;;;;;8.33;8.33;;;;;23.07;51.37;101127.78;5081314;27;45331;-77
2022/06/15 08:26:47;;;;;;;;;7.67;7.67;;;;;23.12;50.24;101113.47;5081691;27;45291;-75
2022/06/15 08:29:14;;;;;;;;;8.33;8.33;;;;;23.23;50.41;101119.03;5081653;27;45274;-76
2022/06/15 08:31:39;;;;;;;;;8.00;8.00;;;;;23.33;49.46;101125.44;5081780;27;45280;-76
2022/06/15 08:34:06;;;;;;;;;21.00;20.33;;;;;23.46;49.68;101123.41;5077585;28;47495;-75
2022/06/15 08:36:32;;;;;;;;;21.33;20.00;;;;;23.58;49.70;101126.00;5081231;27;45995;-75
2022/06/15 08:38:58;;;;;;;;;9.67;9.00;;;;;23.68;49.66;101134.25;5097564;27;45371;-75
2022/06/15 08:41:32;;;;;;;;;7.00;7.00;;;;;23.77;49.21;101129.22;5096080;27;46261;-75
2022/06/15 08:44:40;;;;;;;;;10.00;10.00;;;;;23.90;49.17;101125.28;5078740;28;46412;-74
2022/06/15 08:47:28;;;;;;;;;25.67;24.67;;;;;24.02;48.82;101125.13;5050735;28;45602;-76
2022/06/15 08:50:30;;;;;;;;;9.33;9.33;;;;;24.12;48.09;101123.59;5081345;27;45336;-75
2022/06/15 08:53:07;;;;;;;;;7.67;7.67;;;;;24.23;47.89;101119.94;5081197;28;45484;-75
2022/06/15 08:55:45;;;;;;;;;9.33;9.33;;;;;24.33;48.21;101125.44;5080315;27;45266;-76
2022/06/15 08:58:20;;;;;;;;;8.67;8.67;;;;;24.46;47.72;101124.19;5080812;27;45261;-76
2022/06/15 09:00:46;;;;;;;;;8.00;8.00;;;;;24.56;47.41;101120.75;5081109;27;45445;-75
2022/06/15 09:03:18;;;;;;;;;25.67;24.67;;;;;24.76;47.40;101126.59;5080766;27;45446;-75
2022/06/15 09:06:02;;;;;;;;;12.33;12.33;;;;;24.91;46.58;101126.75;5080153;27;48124;-75
2022/06/15 09:09:06;;;;;;;;;30.67;27.67;;;;;25.11;46.42;101129.84;5079542;27;45434;-75
2022/06/15 09:11:52;;;;;;;;;57.25;44.75;;;;;25.25;45.07;101113.84;5058005;28;45497;-76
2022/06/15 09:14:46;;;;;;;;;40.67;33.33;;;;;25.36;43.53;101112.81;5040705;28;46378;-77
2022/06/15 09:17:16;;;;;;;;;157.50;142.75;;;;;25.40;42.91;101102.22;5075787;27;46121;-74
2022/06/15 09:20:02;;;;;;;;;53.25;41.75;;;;;25.53;45.14;101112.59;5080947;27;45266;-75
2022/06/15 09:22:38;;;;;;;;;8.50;8.50;;;;;25.57;43.34;101105.56;5080850;27;45597;-76
2022/06/15 09:25:15;;;;;;;;;9.67;9.67;;;;;25.66;43.13;101114.06;5080852;27;45385;-75
2022/06/15 09:27:57;;;;;;;;;29.67;27.67;;;;;25.74;43.70;101122.78;5080020;27;45951;-75
2022/06/15 09:30:28;;;;;;;;;9.00;9.00;;;;;25.79;43.14;101125.50;5080746;27;45373;-76
2022/06/15 09:33:03;;;;;;;;;62.75;50.25;;;;;25.87;42.46;101126.88;5080767;27;45360;-76
2022/06/15 09:35:35;;;;;;;;;21.00;20.33;;;;;25.92;41.82;101119.53;5092810;27;45949;-75
2022/06/15 09:38:05;;;;;;;;;10.00;10.00;;;;;26.03;42.31;101114.09;5075643;28;46305;-74
2022/06/15 09:41:06;;;;;;;;;31.33;29.00;;;;;26.11;41.70;101116.31;5080761;28;45284;-75
2022/06/15 09:43:40;;;;;;;;;10.67;10.00;;;;;26.22;42.39;101119.88;5075005;27;45295;-75
2022/06/15 09:46:19;;;;;;;;;42.33;34.67;;;;;26.41;41.55;101125.63;5080462;27;46552;-75
2022/06/15 09:49:21;;;;;;;;;46.00;37.00;;;;;26.54;42.01;101129.69;5080455;27;45735;-75
2022/06/15 09:51:53;;;;;;;;;10.33;10.33;;;;;26.67;40.66;101111.16;5078064;27;45390;-74
2022/06/15 09:54:47;;;;;;;;;8.67;8.67;;;;;26.78;40.58;101118.22;5079708;28;45282;-74
2022/06/15 09:57:13;;;;;;;;;8.00;8.00;;;;;26.80;39.45;101107.03;5077666;28;46308;-75
2022/06/15 09:59:39;;;;;;;;;6.67;6.67;;;;;26.94;40.04;101119.00;5080075;27;45415;-75
2022/06/15 10:02:18;;;;;;;;;10.00;10.00;;;;;27.01;40.05;101115.19;5080223;27;45327;-77
2022/06/15 10:04:43;;;;;;;;;17.00;16.33;;;;;27.05;39.28;101103.47;5088276;27;45391;-77
2022/06/15 10:07:47;;;;;;;;;29.67;28.00;;;;;27.19;39.19;101111.06;5086584;27;45242;-77
2022/06/15 10:10:35;;;;;;;;;10.00;10.00;;;;;27.25;38.87;101106.38;5079851;28;45356;-76
2022/06/15 10:13:26;;;;;;;;;18.67;15.00;;;;;27.33;39.37;101108.56;5080449;27;45254;-79
2022/06/15 10:16:03;;;;;;;;;9.00;9.00;;;;;27.43;38.65;101094.03;5083892;27;45381;-76
2022/06/15 10:19:05;;;;;;;;;13.00;10.67;;;;;27.53;39.09;101099.44;5080096;27;45391;-74
2022/06/15 10:21:34;;;;;;;;;10.00;10.00;;;;;27.67;38.47;101107.03;5081303;27;45499;-77
2022/06/15 10:24:20;;;;;;;;;10.00;9.33;;;;;27.77;37.69;101114.38;5080109;27;45424;-77
2022/06/15 10:26:52;;;;;;;;;7.33;7.33;;;;;27.83;37.54;101099.56;5081448;28;45534;-79
2022/06/15 10:29:22;;;;;;;;;9.67;9.67;;;;;28.00;36.69;101115.56;5079659;28;45578;-77
2022/06/15 10:32:15;;;;;;;;;23.00;23.00;;;;;28.18;37.38;101118.72;5080112;27;45357;-76
2022/06/15 10:34:43;;;;;;;;;15.67;15.67;;;;;28.40;37.75;101117.50;5079408;28;45666;-75
2022/06/15 10:37:47;;;;;;;;;12.00;11.00;;;;;28.62;37.19;101122.47;5078599;28;45309;-76
2022/06/15 10:40:31;;;;;;;;;12.33;12.33;;;;;28.78;37.17;101114.09;5057443;28;47434;-76
2022/06/15 10:43:14;;;;;;;;;17.33;16.33;;;;;28.97;36.71;101108.75;5079179;28;45749;-75
2022/06/15 10:46:02;;;;;;;;;16.00;15.33;;;;;29.17;36.56;101109.59;5079742;27;45288;-75
2022/06/15 10:48:41;;;;;;;;;15.67;14.67;;;;;29.31;36.20;101096.84;5079125;27;45420;-75
2022/06/15 10:51:28;;;;;;;;;9.67;9.67;;;;;29.64;36.29;101104.38;5079723;28;45414;-75
2022/06/15 10:54:13;;;;;;;;;9.33;9.33;;;;;29.82;35.62;101101.91;5079298;28;46059;-75
2022/06/15 11:02:38;;;;;;;;;11.00;11.00;;;;;30.43;34.96;101113.03;5079403;27;45342;-75
2022/06/15 11:05:09;;;;;;;;;14.00;13.00;;;;;30.62;35.14;101117.63;5089633;27;46145;-74
2022/06/15 11:07:40;;;;;;;;;9.67;9.67;;;;;30.70;33.77;101102.38;5077793;28;46121;-76
2022/06/15 11:10:23;;;;;;;;;11.00;11.00;;;;;30.84;34.21;101111.50;5078003;27;45321;-77
2022/06/15 11:13:03;;;;;;;;;9.00;7.67;;;;;31.01;33.47;101117.47;5078982;27;45374;-74
2022/06/15 11:18:45;;;;;;;;;10.67;10.67;;;;;31.28;33.24;101118.59;5079194;28;45458;-76
2022/06/15 11:21:25;;;;;;;;;9.33;9.33;;;;;31.42;33.26;101108.41;5079121;27;45362;-78
2022/06/15 11:24:16;;;;;;;;;12.00;9.33;;;;;31.67;33.19;101119.97;5078725;27;45592;-76
2022/06/15 11:26:54;;;;;;;;;10.67;10.67;;;;;31.87;32.97;101123.34;5078460;27;45251;-76
2022/06/15 11:29:45;;;;;;;;;9.33;9.33;;;;;31.97;32.51;101117.66;5076369;28;46047;-76
2022/06/15 11:32:17;;;;;;;;;13.33;9.67;;;;;32.19;31.99;101115.19;5078752;27;45294;-75
2022/06/15 11:34:52;;;;;;;;;10.33;10.33;;;;;32.15;32.29;101106.78;5077508;27;45539;-75
2022/06/15 11:37:24;;;;;;;;;9.00;9.00;;;;;32.19;31.70;101105.00;5077122;27;46279;-74
2022/06/15 11:39:56;;;;;;;;;9.67;9.67;;;;;32.27;31.94;101100.69;5078031;27;45427;-75
2022/06/15 11:42:23;;;;;;;;;9.00;9.00;;;;;32.38;32.22;101104.78;5079130;27;45633;-77
2022/06/15 11:44:48;;;;;;;;;11.00;9.67;;;;;32.49;31.34;101110.06;5093514;27;46722;-75
2022/06/15 11:47:45;;;;;;;;;9.67;8.00;;;;;32.56;30.48;101106.88;5077727;27;46106;-74
2022/06/15 11:50:30;;;;;;;;;11.00;11.00;;;;;32.63;31.61;101101.72;5093622;27;46172;-75
2022/06/15 11:53:12;;;;;;;;;10.00;10.00;;;;;32.72;30.87;101110.00;5078977;27;45668;-75